sensor_id;sensor_type;location;lat;lon;timestamp;P1;durP1;ratioP1;P2;durP2;ratioP2
27576;SDS011;15011;53.380;10.034;2024-02-23T00:00:21;3.55;;;1.00;;
27576;SDS011;15011;53.380;10.034;2024-02-23T00:05:21;3.93;;;0.70;;
27576;SDS011;15011;53.380;10.034;2024-02-23T00:10:22;1.10;;;0.90;;
27576;SDS011;15011;53.380;10.034;2024-02-23T00:15:22;0.63;;;0.60;;
27576;SDS011;15011;53.380;10.034;2024-02-23T00:20:25;0.28;;;0.28;;
27576;SDS011;15011;53.380;10.034;2024-02-23T00:25:25;0.90;;;0.50;;
27576;SDS011;15011;53.380;10.034;2024-02-23T00:30:26;0.40;;;0.40;;
27576;SDS011;15011;53.380;10.034;2024-02-23T00:35:27;1.25;;;0.63;;
27576;SDS011;15011;53.380;10.034;2024-02-23T00:40:29;3.07;;;0.70;;
27576;SDS011;15011;53.380;10.034;2024-02-23T00:45:29;2.83;;;0.43;;
27576;SDS011;15011;53.380;10.034;2024-02-23T00:50:29;0.93;;;0.50;;
27576;SDS011;15011;53.380;10.034;2024-02-23T00:55:30;1.37;;;0.67;;
27576;SDS011;15011;53.380;10.034;2024-02-23T01:00:30;1.70;;;0.67;;
27576;SDS011;15011;53.380;10.034;2024-02-23T01:05:31;0.83;;;0.80;;
27576;SDS011;15011;53.380;10.034;2024-02-23T01:10:31;3.07;;;0.80;;
27576;SDS011;15011;53.380;10.034;2024-02-23T01:15:31;4.03;;;0.70;;
27576;SDS011;15011;53.380;10.034;2024-02-23T01:20:32;0.33;;;0.30;;
27576;SDS011;15011;53.380;10.034;2024-02-23T01:25:32;0.38;;;0.25;;
27576;SDS011;15011;53.380;10.034;2024-02-23T01:30:35;0.30;;;0.30;;
27576;SDS011;15011;53.380;10.034;2024-02-23T01:35:35;0.40;;;0.40;;
27576;SDS011;15011;53.380;10.034;2024-02-23T01:40:36;0.43;;;0.43;;
27576;SDS011;15011;53.380;10.034;2024-02-23T01:45:37;2.83;;;0.70;;
27576;SDS011;15011;53.380;10.034;2024-02-23T01:50:37;0.40;;;0.40;;
27576;SDS011;15011;53.380;10.034;2024-02-23T01:55:40;0.38;;;0.38;;
27576;SDS011;15011;53.380;10.034;2024-02-23T02:00:41;0.60;;;0.60;;
27576;SDS011;15011;53.380;10.034;2024-02-23T02:05:41;0.60;;;0.60;;
27576;SDS011;15011;53.380;10.034;2024-02-23T02:10:41;0.50;;;0.50;;
27576;SDS011;15011;53.380;10.034;2024-02-23T02:15:43;2.25;;;0.60;;
27576;SDS011;15011;53.380;10.034;2024-02-23T02:20:49;1.00;;;0.80;;
27576;SDS011;15011;53.380;10.034;2024-02-23T02:25:57;0.60;;;0.60;;
27576;SDS011;15011;53.380;10.034;2024-02-23T02:30:59;0.52;;;0.52;;
27576;SDS011;15011;53.380;10.034;2024-02-23T02:36:00;0.53;;;0.53;;
27576;SDS011;15011;53.380;10.034;2024-02-23T02:41:00;0.45;;;0.45;;
27576;SDS011;15011;53.380;10.034;2024-02-23T02:46:01;0.50;;;0.50;;
27576;SDS011;15011;53.380;10.034;2024-02-23T02:51:02;0.30;;;0.30;;
27576;SDS011;15011;53.380;10.034;2024-02-23T02:56:05;0.50;;;0.50;;
27576;SDS011;15011;53.380;10.034;2024-02-23T03:01:06;2.80;;;0.57;;
27576;SDS011;15011;53.380;10.034;2024-02-23T03:06:06;0.50;;;0.50;;
27576;SDS011;15011;53.380;10.034;2024-02-23T03:11:07;0.45;;;0.38;;
27576;SDS011;15011;53.380;10.034;2024-02-23T03:16:14;0.50;;;0.50;;
27576;SDS011;15011;53.380;10.034;2024-02-23T03:21:16;0.50;;;0.50;;
27576;SDS011;15011;53.380;10.034;2024-02-23T03:26:16;0.40;;;0.40;;
27576;SDS011;15011;53.380;10.034;2024-02-23T03:31:17;0.30;;;0.30;;
27576;SDS011;15011;53.380;10.034;2024-02-23T03:36:17;0.30;;;0.30;;
27576;SDS011;15011;53.380;10.034;2024-02-23T03:41:18;0.87;;;0.50;;
27576;SDS011;15011;53.380;10.034;2024-02-23T03:46:18;0.30;;;0.30;;
27576;SDS011;15011;53.380;10.034;2024-02-23T03:51:19;0.35;;;0.35;;
27576;SDS011;15011;53.380;10.034;2024-02-23T03:56:20;0.40;;;0.40;;
27576;SDS011;15011;53.380;10.034;2024-02-23T04:01:20;0.87;;;0.40;;
27576;SDS011;15011;53.380;10.034;2024-02-23T04:06:21;0.77;;;0.43;;
27576;SDS011;15011;53.380;10.034;2024-02-23T04:11:21;0.50;;;0.50;;
27576;SDS011;15011;53.380;10.034;2024-02-23T04:16:23;0.22;;;0.22;;
27576;SDS011;15011;53.380;10.034;2024-02-23T04:21:24;0.63;;;0.55;;
27576;SDS011;15011;53.380;10.034;2024-02-23T04:26:25;0.50;;;0.50;;
27576;SDS011;15011;53.380;10.034;2024-02-23T04:31:25;0.63;;;0.30;;
27576;SDS011;15011;53.380;10.034;2024-02-23T04:36:26;3.00;;;0.60;;
27576;SDS011;15011;53.380;10.034;2024-02-23T04:41:26;1.77;;;1.10;;
27576;SDS011;15011;53.380;10.034;2024-02-23T04:46:27;1.58;;;0.43;;
27576;SDS011;15011;53.380;10.034;2024-02-23T04:51:27;2.10;;;1.00;;
27576;SDS011;15011;53.380;10.034;2024-02-23T04:56:27;1.73;;;0.83;;
27576;SDS011;15011;53.380;10.034;2024-02-23T05:01:28;1.27;;;0.93;;
27576;SDS011;15011;53.380;10.034;2024-02-23T05:06:29;1.10;;;0.90;;
27576;SDS011;15011;53.380;10.034;2024-02-23T05:11:29;2.40;;;1.05;;
27576;SDS011;15011;53.380;10.034;2024-02-23T05:16:30;1.87;;;0.83;;
27576;SDS011;15011;53.380;10.034;2024-02-23T05:21:30;0.77;;;0.77;;
27576;SDS011;15011;53.380;10.034;2024-02-23T05:26:31;2.28;;;1.25;;
27576;SDS011;15011;53.380;10.034;2024-02-23T05:31:45;1.40;;;1.13;;
27576;SDS011;15011;53.380;10.034;2024-02-23T05:36:49;2.03;;;1.10;;
27576;SDS011;15011;53.380;10.034;2024-02-23T05:41:51;1.75;;;1.23;;
27576;SDS011;15011;53.380;10.034;2024-02-23T05:46:51;1.77;;;0.97;;
27576;SDS011;15011;53.380;10.034;2024-02-23T05:51:52;1.10;;;0.80;;
27576;SDS011;15011;53.380;10.034;2024-02-23T05:56:52;1.07;;;0.80;;
27576;SDS011;15011;53.380;10.034;2024-02-23T06:01:53;0.83;;;0.80;;
27576;SDS011;15011;53.380;10.034;2024-02-23T06:06:56;4.50;;;1.10;;
27576;SDS011;15011;53.380;10.034;2024-02-23T06:11:57;1.07;;;0.97;;
27576;SDS011;15011;53.380;10.034;2024-02-23T06:16:57;0.90;;;0.70;;
27576;SDS011;15011;53.380;10.034;2024-02-23T06:21:58;1.87;;;1.00;;
27576;SDS011;15011;53.380;10.034;2024-02-23T06:26:58;1.37;;;1.03;;
27576;SDS011;15011;53.380;10.034;2024-02-23T06:31:59;2.67;;;1.20;;
27576;SDS011;15011;53.380;10.034;2024-02-23T06:37:03;3.78;;;1.33;;
27576;SDS011;15011;53.380;10.034;2024-02-23T06:42:03;1.92;;;1.08;;
27576;SDS011;15011;53.380;10.034;2024-02-23T06:47:04;1.75;;;1.13;;
27576;SDS011;15011;53.380;10.034;2024-02-23T06:52:06;3.80;;;1.23;;
27576;SDS011;15011;53.380;10.034;2024-02-23T06:57:07;1.67;;;1.53;;
27576;SDS011;15011;53.380;10.034;2024-02-23T07:02:07;1.15;;;1.05;;
27576;SDS011;15011;53.380;10.034;2024-02-23T07:07:08;3.47;;;1.55;;
27576;SDS011;15011;53.380;10.034;2024-02-23T07:12:09;2.97;;;1.27;;
27576;SDS011;15011;53.380;10.034;2024-02-23T07:17:11;1.15;;;0.80;;
27576;SDS011;15011;53.380;10.034;2024-02-23T07:22:12;2.53;;;1.17;;
27576;SDS011;15011;53.380;10.034;2024-02-23T07:27:12;2.28;;;1.23;;
27576;SDS011;15011;53.380;10.034;2024-02-23T07:32:13;3.40;;;1.30;;
27576;SDS011;15011;53.380;10.034;2024-02-23T07:37:13;2.47;;;1.00;;
27576;SDS011;15011;53.380;10.034;2024-02-23T07:42:14;3.97;;;1.10;;
27576;SDS011;15011;53.380;10.034;2024-02-23T07:47:18;5.90;;;1.35;;
27576;SDS011;15011;53.380;10.034;2024-02-23T07:52:19;2.60;;;1.10;;
27576;SDS011;15011;53.380;10.034;2024-02-23T07:57:19;2.58;;;0.55;;
27576;SDS011;15011;53.380;10.034;2024-02-23T08:02:20;5.30;;;1.02;;
27576;SDS011;15011;53.380;10.034;2024-02-23T08:07:20;4.13;;;1.30;;
27576;SDS011;15011;53.380;10.034;2024-02-23T08:12:23;4.30;;;1.13;;
27576;SDS011;15011;53.380;10.034;2024-02-23T08:17:23;2.85;;;1.27;;
27576;SDS011;15011;53.380;10.034;2024-02-23T08:22:24;4.78;;;1.33;;
27576;SDS011;15011;53.380;10.034;2024-02-23T08:27:24;1.10;;;0.77;;
27576;SDS011;15011;53.380;10.034;2024-02-23T08:32:25;4.27;;;1.20;;
27576;SDS011;15011;53.380;10.034;2024-02-23T08:37:25;2.38;;;0.80;;
27576;SDS011;15011;53.380;10.034;2024-02-23T08:42:26;2.15;;;1.20;;
27576;SDS011;15011;53.380;10.034;2024-02-23T08:47:28;3.17;;;0.90;;
27576;SDS011;15011;53.380;10.034;2024-02-23T08:52:32;3.90;;;1.13;;
27576;SDS011;15011;53.380;10.034;2024-02-23T08:57:32;3.22;;;1.25;;
27576;SDS011;15011;53.380;10.034;2024-02-23T09:02:33;2.63;;;1.17;;
27576;SDS011;15011;53.380;10.034;2024-02-23T09:07:35;1.95;;;0.60;;
27576;SDS011;15011;53.380;10.034;2024-02-23T09:12:36;2.33;;;0.90;;
27576;SDS011;15011;53.380;10.034;2024-02-23T09:17:36;4.00;;;1.38;;
27576;SDS011;15011;53.380;10.034;2024-02-23T09:22:37;3.30;;;1.20;;
27576;SDS011;15011;53.380;10.034;2024-02-23T09:27:37;3.35;;;1.10;;
27576;SDS011;15011;53.380;10.034;2024-02-23T09:32:43;3.00;;;1.50;;
27576;SDS011;15011;53.380;10.034;2024-02-23T09:37:44;3.55;;;1.08;;
27576;SDS011;15011;53.380;10.034;2024-02-23T09:42:47;1.87;;;1.03;;
27576;SDS011;15011;53.380;10.034;2024-02-23T09:47:56;1.83;;;0.95;;
27576;SDS011;15011;53.380;10.034;2024-02-23T09:52:57;3.50;;;0.90;;
27576;SDS011;15011;53.380;10.034;2024-02-23T10:03:00;1.38;;;1.00;;
27576;SDS011;15011;53.380;10.034;2024-02-23T10:08:00;2.97;;;0.93;;
27576;SDS011;15011;53.380;10.034;2024-02-23T10:13:01;2.13;;;0.90;;
27576;SDS011;15011;53.380;10.034;2024-02-23T10:18:01;1.48;;;1.02;;
27576;SDS011;15011;53.380;10.034;2024-02-23T10:23:02;2.97;;;1.02;;
27576;SDS011;15011;53.380;10.034;2024-02-23T10:28:06;1.17;;;0.50;;
27576;SDS011;15011;53.380;10.034;2024-02-23T10:33:07;1.48;;;0.57;;
27576;SDS011;15011;53.380;10.034;2024-02-23T10:38:08;5.13;;;0.90;;
27576;SDS011;15011;53.380;10.034;2024-02-23T10:43:12;0.95;;;0.45;;
27576;SDS011;15011;53.380;10.034;2024-02-23T10:48:13;3.67;;;0.90;;
27576;SDS011;15011;53.380;10.034;2024-02-23T10:53:14;4.10;;;0.85;;
27576;SDS011;15011;53.380;10.034;2024-02-23T10:58:17;2.58;;;0.73;;
27576;SDS011;15011;53.380;10.034;2024-02-23T11:03:17;2.58;;;0.80;;
27576;SDS011;15011;53.380;10.034;2024-02-23T11:08:18;3.20;;;0.77;;
27576;SDS011;15011;53.380;10.034;2024-02-23T11:13:35;0.85;;;0.77;;
27576;SDS011;15011;53.380;10.034;2024-02-23T11:18:39;1.77;;;0.73;;
27576;SDS011;15011;53.380;10.034;2024-02-23T11:23:44;1.52;;;0.50;;
27576;SDS011;15011;53.380;10.034;2024-02-23T11:28:48;4.05;;;0.70;;
27576;SDS011;15011;53.380;10.034;2024-02-23T11:33:50;1.27;;;0.80;;
27576;SDS011;15011;53.380;10.034;2024-02-23T11:38:54;1.10;;;0.47;;
27576;SDS011;15011;53.380;10.034;2024-02-23T11:43:57;2.22;;;0.77;;
27576;SDS011;15011;53.380;10.034;2024-02-23T11:48:58;1.67;;;0.65;;
27576;SDS011;15011;53.380;10.034;2024-02-23T11:54:00;0.57;;;0.40;;
27576;SDS011;15011;53.380;10.034;2024-02-23T11:59:00;1.57;;;0.57;;
27576;SDS011;15011;53.380;10.034;2024-02-23T12:04:01;2.20;;;0.80;;
27576;SDS011;15011;53.380;10.034;2024-02-23T12:09:01;0.60;;;0.40;;
27576;SDS011;15011;53.380;10.034;2024-02-23T12:14:02;3.10;;;1.05;;
27576;SDS011;15011;53.380;10.034;2024-02-23T12:19:08;0.45;;;0.45;;
27576;SDS011;15011;53.380;10.034;2024-02-23T12:24:08;1.80;;;0.57;;
27576;SDS011;15011;53.380;10.034;2024-02-23T12:29:09;0.68;;;0.63;;
27576;SDS011;15011;53.380;10.034;2024-02-23T12:34:11;3.90;;;0.63;;
27576;SDS011;15011;53.380;10.034;2024-02-23T12:39:12;2.03;;;0.85;;
27576;SDS011;15011;53.380;10.034;2024-02-23T12:44:12;0.88;;;0.50;;
27576;SDS011;15011;53.380;10.034;2024-02-23T12:49:13;0.83;;;0.67;;
27576;SDS011;15011;53.380;10.034;2024-02-23T12:54:13;0.43;;;0.43;;
27576;SDS011;15011;53.380;10.034;2024-02-23T12:59:14;2.30;;;0.88;;
27576;SDS011;15011;53.380;10.034;2024-02-23T13:04:14;1.90;;;0.60;;
27576;SDS011;15011;53.380;10.034;2024-02-23T13:09:14;1.80;;;0.50;;
27576;SDS011;15011;53.380;10.034;2024-02-23T13:14:15;0.70;;;0.40;;
27576;SDS011;15011;53.380;10.034;2024-02-23T13:19:16;0.80;;;0.22;;
27576;SDS011;15011;53.380;10.034;2024-02-23T13:24:16;0.23;;;0.23;;
27576;SDS011;15011;53.380;10.034;2024-02-23T13:29:16;1.10;;;0.20;;
27576;SDS011;15011;53.380;10.034;2024-02-23T13:34:17;3.90;;;1.65;;
27576;SDS011;15011;53.380;10.034;2024-02-23T13:39:19;2.45;;;0.50;;
27576;SDS011;15011;53.380;10.034;2024-02-23T13:44:19;1.25;;;0.45;;
27576;SDS011;15011;53.380;10.034;2024-02-23T13:49:20;0.30;;;0.30;;
27576;SDS011;15011;53.380;10.034;2024-02-23T13:54:20;2.57;;;0.50;;
27576;SDS011;15011;53.380;10.034;2024-02-23T13:59:20;1.17;;;0.50;;
27576;SDS011;15011;53.380;10.034;2024-02-23T14:04:21;1.13;;;0.30;;
27576;SDS011;15011;53.380;10.034;2024-02-23T14:09:22;0.80;;;0.60;;
27576;SDS011;15011;53.380;10.034;2024-02-23T14:14:22;1.03;;;0.50;;
27576;SDS011;15011;53.380;10.034;2024-02-23T14:19:23;1.65;;;0.60;;
27576;SDS011;15011;53.380;10.034;2024-02-23T14:24:25;2.83;;;0.70;;
27576;SDS011;15011;53.380;10.034;2024-02-23T14:29:25;0.83;;;0.40;;
27576;SDS011;15011;53.380;10.034;2024-02-23T14:34:25;1.50;;;0.60;;
27576;SDS011;15011;53.380;10.034;2024-02-23T14:39:26;1.20;;;0.52;;
27576;SDS011;15011;53.380;10.034;2024-02-23T14:44:26;1.70;;;0.60;;
27576;SDS011;15011;53.380;10.034;2024-02-23T14:49:27;1.23;;;0.50;;
27576;SDS011;15011;53.380;10.034;2024-02-23T14:54:27;1.10;;;0.40;;
27576;SDS011;15011;53.380;10.034;2024-02-23T14:59:29;1.48;;;0.50;;
27576;SDS011;15011;53.380;10.034;2024-02-23T15:04:30;0.93;;;0.40;;
27576;SDS011;15011;53.380;10.034;2024-02-23T15:09:31;1.00;;;0.50;;
27576;SDS011;15011;53.380;10.034;2024-02-23T15:14:31;1.17;;;0.73;;
27576;SDS011;15011;53.380;10.034;2024-02-23T15:19:32;2.03;;;0.73;;
27576;SDS011;15011;53.380;10.034;2024-02-23T15:24:32;0.60;;;0.50;;
27576;SDS011;15011;53.380;10.034;2024-02-23T15:29:33;2.33;;;0.77;;
27576;SDS011;15011;53.380;10.034;2024-02-23T15:34:33;4.17;;;1.17;;
27576;SDS011;15011;53.380;10.034;2024-02-23T15:39:34;1.67;;;0.50;;
27576;SDS011;15011;53.380;10.034;2024-02-23T15:44:34;2.73;;;0.60;;
27576;SDS011;15011;53.380;10.034;2024-02-23T15:49:34;1.63;;;0.60;;
27576;SDS011;15011;53.380;10.034;2024-02-23T15:54:35;0.40;;;0.40;;
27576;SDS011;15011;53.380;10.034;2024-02-23T15:59:35;1.00;;;0.47;;
27576;SDS011;15011;53.380;10.034;2024-02-23T16:04:36;0.90;;;0.40;;
27576;SDS011;15011;53.380;10.034;2024-02-23T16:09:36;1.00;;;0.40;;
27576;SDS011;15011;53.380;10.034;2024-02-23T16:14:37;2.50;;;0.68;;
27576;SDS011;15011;53.380;10.034;2024-02-23T16:19:38;2.10;;;1.00;;
27576;SDS011;15011;53.380;10.034;2024-02-23T16:24:40;2.03;;;0.90;;
27576;SDS011;15011;53.380;10.034;2024-02-23T16:29:40;1.80;;;0.65;;
27576;SDS011;15011;53.380;10.034;2024-02-23T16:34:41;1.13;;;0.70;;
27576;SDS011;15011;53.380;10.034;2024-02-23T16:39:41;1.13;;;0.80;;
27576;SDS011;15011;53.380;10.034;2024-02-23T16:44:42;2.03;;;1.10;;
27576;SDS011;15011;53.380;10.034;2024-02-23T16:49:42;1.67;;;0.80;;
27576;SDS011;15011;53.380;10.034;2024-02-23T16:54:43;2.13;;;0.70;;
27576;SDS011;15011;53.380;10.034;2024-02-23T16:59:43;1.17;;;0.90;;
27576;SDS011;15011;53.380;10.034;2024-02-23T17:04:44;1.23;;;0.70;;
27576;SDS011;15011;53.380;10.034;2024-02-23T17:09:44;1.37;;;0.60;;
27576;SDS011;15011;53.380;10.034;2024-02-23T17:14:47;2.13;;;1.02;;
27576;SDS011;15011;53.380;10.034;2024-02-23T17:19:47;2.47;;;1.30;;
27576;SDS011;15011;53.380;10.034;2024-02-23T17:24:48;3.80;;;0.82;;
27576;SDS011;15011;53.380;10.034;2024-02-23T17:29:49;1.35;;;0.77;;
27576;SDS011;15011;53.380;10.034;2024-02-23T17:34:49;4.73;;;1.10;;
27576;SDS011;15011;53.380;10.034;2024-02-23T17:39:53;4.18;;;1.25;;
27576;SDS011;15011;53.380;10.034;2024-02-23T17:44:55;2.05;;;1.10;;
27576;SDS011;15011;53.380;10.034;2024-02-23T17:49:55;2.67;;;1.50;;
27576;SDS011;15011;53.380;10.034;2024-02-23T17:54:56;1.38;;;1.23;;
27576;SDS011;15011;53.380;10.034;2024-02-23T17:59:57;3.10;;;1.35;;
27576;SDS011;15011;53.380;10.034;2024-02-23T18:04:58;2.42;;;1.23;;
27576;SDS011;15011;53.380;10.034;2024-02-23T18:09:58;2.70;;;2.10;;
27576;SDS011;15011;53.380;10.034;2024-02-23T18:14:59;3.27;;;1.23;;
27576;SDS011;15011;53.380;10.034;2024-02-23T18:19:59;2.10;;;1.03;;
27576;SDS011;15011;53.380;10.034;2024-02-23T18:24:59;3.00;;;1.08;;
27576;SDS011;15011;53.380;10.034;2024-02-23T18:30:00;1.07;;;0.90;;
27576;SDS011;15011;53.380;10.034;2024-02-23T18:35:00;2.93;;;1.10;;
27576;SDS011;15011;53.380;10.034;2024-02-23T18:40:01;2.10;;;1.20;;
27576;SDS011;15011;53.380;10.034;2024-02-23T18:45:03;3.75;;;1.08;;
27576;SDS011;15011;53.380;10.034;2024-02-23T18:50:05;1.50;;;1.20;;
27576;SDS011;15011;53.380;10.034;2024-02-23T18:55:06;0.63;;;0.35;;
27576;SDS011;15011;53.380;10.034;2024-02-23T19:00:09;2.60;;;0.88;;
27576;SDS011;15011;53.380;10.034;2024-02-23T19:05:11;1.00;;;0.40;;
27576;SDS011;15011;53.380;10.034;2024-02-23T19:10:11;1.27;;;0.70;;
27576;SDS011;15011;53.380;10.034;2024-02-23T19:15:12;0.93;;;0.60;;
27576;SDS011;15011;53.380;10.034;2024-02-23T19:20:12;1.05;;;0.65;;
27576;SDS011;15011;53.380;10.034;2024-02-23T19:25:13;5.07;;;2.40;;
27576;SDS011;15011;53.380;10.034;2024-02-23T19:30:14;4.45;;;2.63;;
27576;SDS011;15011;53.380;10.034;2024-02-23T19:35:15;4.75;;;1.90;;
27576;SDS011;15011;53.380;10.034;2024-02-23T19:40:16;2.55;;;1.27;;
27576;SDS011;15011;53.380;10.034;2024-02-23T19:45:21;3.38;;;1.20;;
27576;SDS011;15011;53.380;10.034;2024-02-23T19:50:21;3.40;;;1.40;;
27576;SDS011;15011;53.380;10.034;2024-02-23T19:55:22;1.42;;;1.10;;
27576;SDS011;15011;53.380;10.034;2024-02-23T20:00:22;5.15;;;2.10;;
27576;SDS011;15011;53.380;10.034;2024-02-23T20:05:23;8.13;;;3.73;;
27576;SDS011;15011;53.380;10.034;2024-02-23T20:10:25;6.15;;;3.88;;
27576;SDS011;15011;53.380;10.034;2024-02-23T20:15:26;4.70;;;2.95;;
27576;SDS011;15011;53.380;10.034;2024-02-23T20:20:26;4.37;;;2.50;;
27576;SDS011;15011;53.380;10.034;2024-02-23T20:25:27;2.97;;;2.20;;
27576;SDS011;15011;53.380;10.034;2024-02-23T20:30:27;3.87;;;1.53;;
27576;SDS011;15011;53.380;10.034;2024-02-23T20:35:28;2.90;;;1.67;;
27576;SDS011;15011;53.380;10.034;2024-02-23T20:40:29;1.90;;;1.63;;
27576;SDS011;15011;53.380;10.034;2024-02-23T20:45:29;2.43;;;1.60;;
27576;SDS011;15011;53.380;10.034;2024-02-23T20:50:30;2.37;;;1.27;;
27576;SDS011;15011;53.380;10.034;2024-02-23T20:55:30;1.50;;;1.40;;
27576;SDS011;15011;53.380;10.034;2024-02-23T21:00:31;2.87;;;1.60;;
27576;SDS011;15011;53.380;10.034;2024-02-23T21:05:31;4.38;;;1.67;;
27576;SDS011;15011;53.380;10.034;2024-02-23T21:10:34;3.30;;;1.60;;
27576;SDS011;15011;53.380;10.034;2024-02-23T21:15:34;4.40;;;1.70;;
27576;SDS011;15011;53.380;10.034;2024-02-23T21:20:37;1.70;;;1.42;;
27576;SDS011;15011;53.380;10.034;2024-02-23T21:25:37;4.00;;;1.70;;
27576;SDS011;15011;53.380;10.034;2024-02-23T21:30:38;3.95;;;1.67;;
27576;SDS011;15011;53.380;10.034;2024-02-23T21:35:42;0.80;;;0.80;;
27576;SDS011;15011;53.380;10.034;2024-02-23T21:40:43;2.10;;;1.00;;
27576;SDS011;15011;53.380;10.034;2024-02-23T21:45:43;3.13;;;0.93;;
27576;SDS011;15011;53.380;10.034;2024-02-23T21:50:43;2.87;;;0.90;;
27576;SDS011;15011;53.380;10.034;2024-02-23T21:55:44;1.77;;;0.90;;
27576;SDS011;15011;53.380;10.034;2024-02-23T22:00:44;0.70;;;0.70;;
27576;SDS011;15011;53.380;10.034;2024-02-23T22:05:45;2.33;;;1.00;;
27576;SDS011;15011;53.380;10.034;2024-02-23T22:10:45;1.43;;;0.57;;
27576;SDS011;15011;53.380;10.034;2024-02-23T22:15:46;3.67;;;0.80;;
27576;SDS011;15011;53.380;10.034;2024-02-23T22:20:46;2.30;;;0.93;;
27576;SDS011;15011;53.380;10.034;2024-02-23T22:25:47;2.43;;;0.77;;
27576;SDS011;15011;53.380;10.034;2024-02-23T22:30:47;3.73;;;1.27;;
27576;SDS011;15011;53.380;10.034;2024-02-23T22:35:47;1.65;;;0.70;;
27576;SDS011;15011;53.380;10.034;2024-02-23T22:41:07;2.10;;;0.80;;
27576;SDS011;15011;53.380;10.034;2024-02-23T22:46:08;1.85;;;0.70;;
27576;SDS011;15011;53.380;10.034;2024-02-23T22:51:08;3.30;;;0.70;;
27576;SDS011;15011;53.380;10.034;2024-02-23T22:56:09;2.15;;;0.80;;
27576;SDS011;15011;53.380;10.034;2024-02-23T23:01:09;2.30;;;0.80;;
27576;SDS011;15011;53.380;10.034;2024-02-23T23:06:10;1.53;;;0.63;;
27576;SDS011;15011;53.380;10.034;2024-02-23T23:11:10;3.53;;;0.87;;
27576;SDS011;15011;53.380;10.034;2024-02-23T23:16:10;3.23;;;0.83;;
27576;SDS011;15011;53.380;10.034;2024-02-23T23:21:11;1.83;;;0.80;;
27576;SDS011;15011;53.380;10.034;2024-02-23T23:26:11;1.73;;;0.80;;
27576;SDS011;15011;53.380;10.034;2024-02-23T23:31:13;1.60;;;0.82;;
27576;SDS011;15011;53.380;10.034;2024-02-23T23:36:14;0.82;;;0.68;;
27576;SDS011;15011;53.380;10.034;2024-02-23T23:41:15;2.35;;;0.80;;
27576;SDS011;15011;53.380;10.034;2024-02-23T23:46:16;1.70;;;0.80;;
27576;SDS011;15011;53.380;10.034;2024-02-23T23:51:16;1.47;;;0.90;;
27576;SDS011;15011;53.380;10.034;2024-02-23T23:56:17;2.65;;;0.90;;
